Aviation Digital Data Service (ADDS)

Output produced by METARs form (0150 UTC 31 May 2020)
found at http://aviationweather.gov/metar/data/
 
METAR text: KCHD 310047Z 27007KT 10SM SCT150 BKN200 43/05 A2966
Conditions at: KCHD (CHANDLER , AZ, US) observed 0047 UTC 31 May 2020
Temperature: 43.0°C (109°F)
Dewpoint: 5.0°C (41°F) [RH = 10%]
Pressure (altimeter): 29.66 inches Hg (1004.5 mb)
Winds: from the W (270 degrees) at 8 MPH (7 knots; 3.6 m/s)
Visibility: 10 or more miles (16+ km)
Ceiling: 20000 feet AGL
Clouds: scattered clouds at 15000 feet AGL
broken clouds at 20000 feet AGL
Weather: no significant weather observed at this time

METAR text: KCHD 302347Z 23008G15KT 10SM SCT150 BKN200 43/05 A2967
Conditions at: KCHD (CHANDLER , AZ, US) observed 2347 UTC 30 May 2020
Temperature: 43.0°C (109°F)
Dewpoint: 5.0°C (41°F) [RH = 10%]
Pressure (altimeter): 29.67 inches Hg (1004.8 mb)
Winds: from the SW (230 degrees) at 9 MPH (8 knots; 4.1 m/s)
gusting to 17 MPH (15 knots; 7.7 m/s)
Visibility: 10 or more miles (16+ km)
Ceiling: 20000 feet AGL
Clouds: scattered clouds at 15000 feet AGL
broken clouds at 20000 feet AGL
Weather: no significant weather observed at this time

METAR text: KCHD 302247Z 19007G17KT 10SM SCT220 43/04 A2969
Conditions at: KCHD (CHANDLER , AZ, US) observed 2247 UTC 30 May 2020
Temperature: 43.0°C (109°F)
Dewpoint: 4.0°C (39°F) [RH =  9%]
Pressure (altimeter): 29.69 inches Hg (1005.5 mb)
Winds: from the S (190 degrees) at 8 MPH (7 knots; 3.6 m/s)
gusting to 20 MPH (17 knots; 8.7 m/s)
Visibility: 10 or more miles (16+ km)
Ceiling: at least 12,000 feet AGL
Clouds: scattered clouds at 22000 feet AGL
Weather: no significant weather observed at this time

METAR text: KCHD 302147Z 18005G12KT 10SM SCT220 42/04 A2973
Conditions at: KCHD (CHANDLER , AZ, US) observed 2147 UTC 30 May 2020
Temperature: 42.0°C (108°F)
Dewpoint: 4.0°C (39°F) [RH = 10%]
Pressure (altimeter): 29.73 inches Hg (1006.9 mb)
Winds: from the S (180 degrees) at 6 MPH (5 knots; 2.6 m/s)
gusting to 14 MPH (12 knots; 6.2 m/s)
Visibility: 10 or more miles (16+ km)
Ceiling: at least 12,000 feet AGL
Clouds: scattered clouds at 22000 feet AGL
Weather: no significant weather observed at this time

METAR text: KCHD 301847Z VRB04KT 10SM SCT220 29/05 A2982
Conditions at: KCHD (CHANDLER , AZ, US) observed 1847 UTC 30 May 2020
Temperature: 29.0°C (84°F)
Dewpoint: 5.0°C (41°F) [RH = 22%]
Pressure (altimeter): 29.82 inches Hg (1009.9 mb)
Winds: variable direction winds at 5 MPH (4 knots; 2.1 m/s)
Visibility: 10 or more miles (16+ km)
Ceiling: at least 12,000 feet AGL
Clouds: scattered clouds at 22000 feet AGL
Weather: no significant weather observed at this time

METAR text: KCHD 301747Z 09005KT 10SM SCT220 38/07 A2984
Conditions at: KCHD (CHANDLER , AZ, US) observed 1747 UTC 30 May 2020
Temperature: 38.0°C (100°F)
Dewpoint: 7.0°C (45°F) [RH = 15%]
Pressure (altimeter): 29.84 inches Hg (1010.6 mb)
Winds: from the E (90 degrees) at 6 MPH (5 knots; 2.6 m/s)
Visibility: 10 or more miles (16+ km)
Ceiling: at least 12,000 feet AGL
Clouds: scattered clouds at 22000 feet AGL
Weather: no significant weather observed at this time

METAR text: KCHD 301647Z 00000KT 10SM SCT200 36/08 A2986
Conditions at: KCHD (CHANDLER , AZ, US) observed 1647 UTC 30 May 2020
Temperature: 36.0°C (97°F)
Dewpoint: 8.0°C (46°F) [RH = 18%]
Pressure (altimeter): 29.86 inches Hg (1011.3 mb)
Winds: calm
Visibility: 10 or more miles (16+ km)
Ceiling: at least 12,000 feet AGL
Clouds: scattered clouds at 20000 feet AGL
Weather: no significant weather observed at this time

METAR text: KCHD 301547Z 00000KT 10SM SCT200 34/06 A2987
Conditions at: KCHD (CHANDLER , AZ, US) observed 1547 UTC 30 May 2020
Temperature: 34.0°C (93°F)
Dewpoint: 6.0°C (43°F) [RH = 18%]
Pressure (altimeter): 29.87 inches Hg (1011.6 mb)
Winds: calm
Visibility: 10 or more miles (16+ km)
Ceiling: at least 12,000 feet AGL
Clouds: scattered clouds at 20000 feet AGL
Weather: no significant weather observed at this time

METAR text: KCHD 301447Z VRB04KT 10SM SCT200 34/06 A2987
Conditions at: KCHD (CHANDLER , AZ, US) observed 1447 UTC 30 May 2020
Temperature: 34.0°C (93°F)
Dewpoint: 6.0°C (43°F) [RH = 18%]
Pressure (altimeter): 29.87 inches Hg (1011.6 mb)
Winds: variable direction winds at 5 MPH (4 knots; 2.1 m/s)
Visibility: 10 or more miles (16+ km)
Ceiling: at least 12,000 feet AGL
Clouds: scattered clouds at 20000 feet AGL
Weather: no significant weather observed at this time